Portada
METAR-TAF:

METAR-TAF

Aeroports :

Pohnpei, Micronèsia

latitud: 06-59N, longitud: 158-12E, altitud: 2 m

Observació

L'informe es va fer fa 1 hora i 32 minuts, a les 06:50 UTC
Vent 3 kt del Sud/Sud-Est
Temperatura 29°C
Humitat 84%
Pressió 1008 hPa
Visibilitat: 24.1 km
Núvols disperses a una alçada de 1800 ft
Cel ennuvolat a una alçada de 13000 ft
Cel cobert a una alçada de 30000 ft

METAR: PTPN 120650Z 15003KT 15SM SCT018 BKN130 OVC300 29/26 A2978

Hora: 19:22 (08:22 UTC)

Pronòstic

L'informe es va fer fa 2 hores i 49 minuts, a les 05:33 UTC
Pronòstic vàlid del 12 a les 06 UTC al 13 a les 06 UTC
Vent 10 kt del Sud-Oest
Visibilitat: 10 km
Núvols disperses a una alçada de 1800 ft
Núvols disperses a una alçada de 5000 ft
Cel ennuvolat a una alçada de 13000 ft
xàfecs en les proximitats

TAF: PTPN 120533Z 1206/1306 22010KT P6SM VCSH SCT018 SCT050 BKN130

Observacions i pronòstics meteorològics de més de 4000 aeroports (METAR i TAF).

Les estacions disponibles són els punts grocs i vermells al mapa.

Posi el ratolí al punt desitjat per veure el nom de l'estació.

Feu clic per veure les observacions i els pronòstics meteorològics.

Per canviar el mapa: feu clic els botons verds amb una creu de color negre per apropar; al botó verd amb un guió per allunyar la imatge; o en les fletxes verdes per a mapes adjacents.


METAR-TAF: